createdAt,value
2023-10-06T00:02:29.944Z,4.20
2023-10-06T00:04:57.974Z,3.47
2023-10-06T00:07:25.726Z,4.15
2023-10-06T00:09:55.189Z,2.85
2023-10-06T00:12:21.887Z,4.68
2023-10-06T00:14:51.548Z,4.40
2023-10-06T00:17:18.967Z,4.63
2023-10-06T00:19:46.800Z,3.97
2023-10-06T00:22:16.240Z,7.35
2023-10-06T00:24:43.279Z,7.25
2023-10-06T00:27:14.113Z,7.05
2023-10-06T00:29:45.319Z,6.70
2023-10-06T00:32:24.309Z,6.90
2023-10-06T00:34:53.869Z,7.30
2023-10-06T00:37:24.529Z,8.45
2023-10-06T00:39:55.857Z,9.43
2023-10-06T00:42:22.723Z,10.15
2023-10-06T00:44:49.642Z,9.25
2023-10-06T00:47:17.005Z,9.48
2023-10-06T00:49:44.712Z,10.10
2023-10-06T00:54:44.213Z,8.85
2023-10-06T00:57:13.819Z,10.88
2023-10-06T00:59:42.582Z,6.45
2023-10-06T01:02:12.601Z,7.00
2023-10-06T01:04:47.087Z,6.35
2023-10-06T01:07:14.955Z,6.43
2023-10-06T01:09:57.927Z,5.97
2023-10-06T01:12:32.431Z,6.00
2023-10-06T01:15:16.856Z,6.03
2023-10-06T01:17:44.586Z,6.82
2023-10-06T01:22:45.678Z,4.63
2023-10-06T01:25:23.440Z,5.07
2023-10-06T01:27:51.606Z,3.72
2023-10-06T01:30:19.542Z,5.05
2023-10-06T01:32:50.259Z,5.35
2023-10-06T01:35:16.997Z,4.90
2023-10-06T01:37:44.771Z,5.20
2023-10-06T01:40:38.244Z,4.03
2023-10-06T01:43:11.294Z,4.78
2023-10-06T01:45:45.038Z,5.63
2023-10-06T01:48:15.076Z,5.82
2023-10-06T01:50:42.406Z,4.20
2023-10-06T01:53:11.852Z,4.43
2023-10-06T01:55:39.734Z,4.47
2023-10-06T01:58:08.753Z,4.47
2023-10-06T02:00:37.185Z,3.83
2023-10-06T02:03:13.630Z,4.15
2023-10-06T02:05:40.265Z,4.30
2023-10-06T02:08:22.425Z,3.42
2023-10-06T02:10:49.392Z,3.30
2023-10-06T02:13:22.736Z,3.50
2023-10-06T02:16:00.292Z,3.50
2023-10-06T02:18:45.854Z,3.45
2023-10-06T02:21:32.657Z,3.83
2023-10-06T02:24:05.186Z,3.60
2023-10-06T02:26:38.657Z,4.82
2023-10-06T02:29:12.609Z,3.80
2023-10-06T02:31:42.546Z,2.88
2023-10-06T02:34:15.833Z,4.88
2023-10-06T02:36:43.072Z,4.50
2023-10-06T02:39:09.971Z,3.45
2023-10-06T02:41:38.098Z,3.65
2023-10-06T02:44:20.379Z,3.35
2023-10-06T02:46:47.033Z,3.85
2023-10-06T02:49:13.770Z,3.60
2023-10-06T02:51:48.711Z,3.65
2023-10-06T02:54:15.520Z,2.65
2023-10-06T02:56:43.497Z,2.40
2023-10-06T02:59:22.844Z,3.47
2023-10-06T03:01:55.438Z,2.75
2023-10-06T03:04:24.054Z,3.53
2023-10-06T03:06:54.738Z,3.38
2023-10-06T03:09:44.494Z,4.05
2023-10-06T03:12:27.608Z,3.80
2023-10-06T03:14:55.359Z,3.58
2023-10-06T03:20:18.288Z,3.17
2023-10-06T03:22:46.469Z,2.58
2023-10-06T03:25:17.665Z,3.30
2023-10-06T03:27:50.861Z,3.72
2023-10-06T03:30:27.925Z,4.43
2023-10-06T03:32:55.081Z,4.20
2023-10-06T03:35:46.618Z,6.25
2023-10-06T03:38:19.465Z,3.58
2023-10-06T03:40:49.353Z,3.63
2023-10-06T03:43:16.009Z,2.40
2023-10-06T03:45:45.041Z,3.97
2023-10-06T03:48:13.302Z,3.67
2023-10-06T03:50:44.164Z,3.95
2023-10-06T03:53:13.381Z,3.45
2023-10-06T03:55:41.225Z,4.05
2023-10-06T04:00:41.266Z,4.03
2023-10-06T04:03:14.838Z,2.78
2023-10-06T04:05:52.398Z,3.30
2023-10-06T04:08:22.538Z,3.40
2023-10-06T04:10:52.884Z,3.92
2023-10-06T04:13:20.180Z,3.30
2023-10-06T04:15:50.602Z,3.63
2023-10-06T04:18:26.203Z,5.65
2023-10-06T04:20:54.932Z,3.95
2023-10-06T04:23:25.243Z,4.22
2023-10-06T04:25:56.755Z,4.15
2023-10-06T04:28:26.607Z,2.75
2023-10-06T04:30:54.684Z,6.50
2023-10-06T04:33:21.345Z,3.35
2023-10-06T04:36:08.749Z,3.25
2023-10-06T04:38:39.144Z,3.53
2023-10-06T04:41:10.475Z,3.60
2023-10-06T04:43:38.866Z,3.25
2023-10-06T04:46:06.651Z,5.53
2023-10-06T04:48:34.058Z,5.88
2023-10-06T04:51:04.134Z,5.13
2023-10-06T04:53:36.130Z,5.47
2023-10-06T04:56:12.455Z,3.50
2023-10-06T04:58:43.346Z,4.32
2023-10-06T05:01:12.155Z,4.88
2023-10-06T05:03:44.987Z,3.15
2023-10-06T05:06:18.037Z,3.45
2023-10-06T05:08:48.602Z,4.03
2023-10-06T05:11:20.686Z,3.40
2023-10-06T05:13:50.834Z,3.53
2023-10-06T05:16:20.131Z,3.50
2023-10-06T05:18:46.992Z,4.25
2023-10-06T05:21:13.574Z,3.35
2023-10-06T05:23:40.120Z,5.93
2023-10-06T05:26:11.802Z,3.72
2023-10-06T05:28:38.677Z,4.28
2023-10-06T05:31:08.624Z,3.08
2023-10-06T05:33:35.651Z,4.63
2023-10-06T05:36:13.128Z,3.70
2023-10-06T05:38:40.140Z,4.05
2023-10-06T05:41:12.470Z,5.45
2023-10-06T05:43:40.367Z,4.68
2023-10-06T05:46:07.260Z,4.40
2023-10-06T05:48:35.375Z,4.78
2023-10-06T05:51:11.073Z,3.88
2023-10-06T05:53:42.700Z,4.82
2023-10-06T05:56:09.964Z,3.75
2023-10-06T05:58:38.681Z,5.68
2023-10-06T06:01:12.302Z,5.07
2023-10-06T06:03:47.299Z,4.28
2023-10-06T06:06:23.821Z,3.88
2023-10-06T06:08:54.102Z,4.28
2023-10-06T06:11:21.377Z,5.63
2023-10-06T06:13:58.888Z,4.50
2023-10-06T06:16:33.768Z,5.90
2023-10-06T06:19:00.382Z,5.55
2023-10-06T06:21:27.458Z,5.25
2023-10-06T06:23:57.003Z,6.63
2023-10-06T06:26:24.270Z,5.00
2023-10-06T06:28:50.875Z,4.45
2023-10-06T06:31:19.591Z,7.22
2023-10-06T06:33:50.420Z,6.05
2023-10-06T06:36:17.267Z,6.60
2023-10-06T06:38:43.797Z,4.88
2023-10-06T06:41:10.402Z,4.20
2023-10-06T06:43:37.046Z,4.95
2023-10-06T06:46:03.668Z,5.00
2023-10-06T06:48:30.321Z,4.93
2023-10-06T06:50:56.902Z,5.15
2023-10-06T06:53:23.460Z,4.95
2023-10-06T06:55:50.186Z,5.95
2023-10-06T06:58:17.925Z,4.53
2023-10-06T07:00:47.555Z,5.07
2023-10-06T07:03:16.020Z,4.63
2023-10-06T07:05:44.240Z,4.30
2023-10-06T07:08:12.777Z,4.93
2023-10-06T07:10:44.724Z,4.70
2023-10-06T07:13:11.985Z,4.72
2023-10-06T07:15:38.547Z,5.97
2023-10-06T07:18:06.234Z,4.30
2023-10-06T07:20:33.981Z,4.63
2023-10-06T07:23:01.869Z,5.82
2023-10-06T07:25:30.027Z,6.20
2023-10-06T07:27:59.128Z,4.70
2023-10-06T07:30:28.522Z,5.05
2023-10-06T07:32:56.211Z,4.70
2023-10-06T07:35:43.612Z,3.97
2023-10-06T07:38:15.429Z,5.65
2023-10-06T07:40:43.685Z,6.32
2023-10-06T07:43:11.409Z,6.07
2023-10-06T07:45:38.037Z,5.07
2023-10-06T07:48:08.089Z,5.35
2023-10-06T07:50:35.976Z,6.60
2023-10-06T07:53:03.023Z,4.90
2023-10-06T07:55:29.783Z,4.32
2023-10-06T07:57:56.489Z,4.88
2023-10-06T08:00:30.049Z,4.68
2023-10-06T08:03:01.037Z,5.22
2023-10-06T08:05:31.168Z,4.75
2023-10-06T08:08:01.347Z,6.07
2023-10-06T08:10:31.793Z,4.90
2023-10-06T08:13:02.166Z,6.97
2023-10-06T08:15:29.369Z,5.22
2023-10-06T08:17:57.475Z,5.15
2023-10-06T08:20:28.676Z,5.63
2023-10-06T08:22:55.834Z,7.18
2023-10-06T08:25:25.130Z,6.60
2023-10-06T08:27:52.597Z,7.00
2023-10-06T08:30:20.993Z,6.22
2023-10-06T08:32:58.627Z,6.97
2023-10-06T08:35:25.318Z,5.90
2023-10-06T08:37:58.011Z,6.10
2023-10-06T08:40:24.985Z,5.63
2023-10-06T08:42:53.264Z,5.05
2023-10-06T08:45:30.445Z,5.72
2023-10-06T08:48:04.670Z,5.18
2023-10-06T08:50:34.757Z,3.90
2023-10-06T08:53:03.161Z,4.22
2023-10-06T08:55:30.389Z,4.38
2023-10-06T08:58:02.781Z,4.68
2023-10-06T09:00:32.478Z,4.82
2023-10-06T09:03:08.550Z,4.28
2023-10-06T09:05:38.815Z,4.05
2023-10-06T09:08:08.677Z,5.38
2023-10-06T09:10:41.912Z,5.18
2023-10-06T09:13:18.346Z,4.15
2023-10-06T09:15:56.699Z,4.70
2023-10-06T09:18:28.416Z,3.92
2023-10-06T09:20:57.330Z,3.63
2023-10-06T09:23:32.149Z,3.55
2023-10-06T09:26:03.287Z,4.60
2023-10-06T09:28:30.251Z,3.72
2023-10-06T09:31:02.796Z,4.05
2023-10-06T09:33:39.414Z,4.03
2023-10-06T09:36:32.105Z,3.50
2023-10-06T09:39:02.428Z,4.03
2023-10-06T09:41:30.449Z,3.42
2023-10-06T09:44:11.053Z,3.63
2023-10-06T09:46:42.712Z,4.90
2023-10-06T09:49:17.290Z,3.90
2023-10-06T09:51:45.123Z,4.57
2023-10-06T09:54:12.600Z,3.00
2023-10-06T09:59:14.817Z,3.83
2023-10-06T10:01:46.995Z,4.28
2023-10-06T10:04:15.220Z,4.20
2023-10-06T10:06:45.806Z,3.55
2023-10-06T10:09:19.149Z,3.45
2023-10-06T10:11:58.318Z,2.78
2023-10-06T10:15:03.949Z,3.03
2023-10-06T10:17:49.278Z,3.35
2023-10-06T10:20:17.390Z,2.72
2023-10-06T10:22:44.425Z,2.47
2023-10-06T10:27:45.005Z,3.75
2023-10-06T10:30:14.077Z,3.33
2023-10-06T10:32:53.289Z,3.22
2023-10-06T10:35:20.259Z,2.72
2023-10-06T10:38:05.854Z,4.00
2023-10-06T10:43:15.704Z,4.45
2023-10-06T10:48:15.445Z,3.20
2023-10-06T10:50:54.359Z,4.72
2023-10-06T10:53:24.330Z,3.67
2023-10-06T10:55:51.842Z,2.63
2023-10-06T10:58:43.495Z,3.75
2023-10-06T11:01:28.602Z,4.45
2023-10-06T11:04:20.011Z,3.08
2023-10-06T11:06:50.629Z,3.17
2023-10-06T11:09:31.772Z,3.03
2023-10-06T11:12:20.164Z,3.47
2023-10-06T11:14:47.667Z,2.20
2023-10-06T11:19:41.613Z,3.67
2023-10-06T11:22:23.706Z,2.20
2023-10-06T11:24:51.949Z,3.83
2023-10-06T11:27:23.643Z,3.72
2023-10-06T11:29:54.265Z,2.60
2023-10-06T11:32:23.012Z,3.42
2023-10-06T11:34:51.954Z,2.63
2023-10-06T11:37:21.892Z,3.28
2023-10-06T11:39:50.328Z,2.70
2023-10-06T11:44:59.320Z,1.63
2023-10-06T11:47:29.083Z,3.90
2023-10-06T11:49:56.072Z,4.43
2023-10-06T11:52:22.957Z,3.50
2023-10-06T11:54:49.744Z,5.20
2023-10-06T11:57:16.867Z,4.35
2023-10-06T11:59:50.827Z,5.15
2023-10-06T12:02:18.117Z,3.95
2023-10-06T12:04:45.515Z,5.97
2023-10-06T12:07:25.153Z,4.25
2023-10-06T12:09:53.253Z,3.40
2023-10-06T12:12:19.889Z,3.70
2023-10-06T12:14:46.691Z,3.53
2023-10-06T12:17:16.080Z,2.72
2023-10-06T12:19:45.698Z,4.00
2023-10-06T12:22:14.766Z,5.30
2023-10-06T12:24:43.691Z,3.25
2023-10-06T12:27:10.833Z,2.50
2023-10-06T12:29:37.418Z,4.05
2023-10-06T12:32:05.528Z,2.70
2023-10-06T12:34:32.993Z,4.75
2023-10-06T12:37:03.392Z,2.97
2023-10-06T12:39:35.823Z,5.15
2023-10-06T12:42:05.160Z,3.00
2023-10-06T12:44:32.237Z,4.03
2023-10-06T12:47:04.606Z,2.47
2023-10-06T12:49:34.269Z,4.60
2023-10-06T12:52:00.948Z,2.58
2023-10-06T12:54:27.463Z,3.50
2023-10-06T12:56:54.052Z,4.57
2023-10-06T12:59:20.654Z,2.65
2023-10-06T13:01:50.203Z,3.25
2023-10-06T13:04:16.950Z,2.20
2023-10-06T13:06:43.818Z,3.53
2023-10-06T13:09:18.334Z,3.15
2023-10-06T13:11:44.998Z,2.97
2023-10-06T13:14:11.801Z,4.50
2023-10-06T13:16:38.534Z,3.28
2023-10-06T13:19:05.585Z,4.05
2023-10-06T13:21:32.174Z,3.38
2023-10-06T13:24:02.319Z,3.45
2023-10-06T13:26:42.657Z,3.42
2023-10-06T13:31:38.434Z,2.97
2023-10-06T13:34:05.472Z,2.42
2023-10-06T13:36:32.297Z,2.00
2023-10-06T13:38:58.903Z,4.00
2023-10-06T13:41:25.603Z,3.22
2023-10-06T13:43:52.268Z,2.85
2023-10-06T13:46:19.290Z,3.35
2023-10-06T13:48:46.013Z,3.80
2023-10-06T13:51:13.140Z,3.15
2023-10-06T13:53:42.288Z,3.83
2023-10-06T13:56:09.501Z,3.30
2023-10-06T13:58:36.358Z,2.90
2023-10-06T14:01:02.993Z,2.33
2023-10-06T14:03:30.140Z,2.78
2023-10-06T14:06:00.321Z,3.42
2023-10-06T14:08:29.423Z,3.50
2023-10-06T14:10:57.764Z,3.13
2023-10-06T14:13:26.250Z,3.80
2023-10-06T14:15:56.702Z,3.75
2023-10-06T14:18:32.127Z,2.85
2023-10-06T14:20:59.418Z,2.53
2023-10-06T14:23:31.393Z,4.80
2023-10-06T14:26:01.707Z,3.35
2023-10-06T14:28:29.692Z,4.00
2023-10-06T14:31:15.574Z,2.70
2023-10-06T14:36:15.557Z,4.35
2023-10-06T14:38:45.092Z,3.85
2023-10-06T14:41:16.586Z,3.55
2023-10-06T14:44:22.223Z,5.82
2023-10-06T14:46:51.772Z,4.88
2023-10-06T14:49:28.798Z,4.72
2023-10-06T14:52:02.193Z,5.30
2023-10-06T14:54:34.077Z,3.83
2023-10-06T14:57:02.400Z,4.03
2023-10-06T14:59:32.670Z,3.40
2023-10-06T15:02:07.547Z,4.18
2023-10-06T15:04:35.696Z,5.50
2023-10-06T15:07:03.036Z,3.55
2023-10-06T15:09:31.853Z,4.57
2023-10-06T15:11:58.462Z,4.55
2023-10-06T15:14:26.451Z,5.00
2023-10-06T15:16:54.410Z,5.35
2023-10-06T15:19:26.101Z,4.15
2023-10-06T15:21:56.043Z,2.63
2023-10-06T15:24:23.029Z,5.78
2023-10-06T15:26:51.538Z,3.60
2023-10-06T15:29:22.446Z,2.95
2023-10-06T15:31:50.319Z,4.40
2023-10-06T15:34:19.847Z,4.03
2023-10-06T15:36:46.660Z,3.60
2023-10-06T15:39:20.102Z,4.22
2023-10-06T15:41:47.864Z,3.35
2023-10-06T15:46:42.196Z,2.80
2023-10-06T15:49:14.867Z,2.90
2023-10-06T15:51:44.012Z,3.17
2023-10-06T15:54:10.820Z,2.83
2023-10-06T15:56:39.912Z,4.10
2023-10-06T15:59:15.174Z,2.88
2023-10-06T16:01:44.346Z,3.17
2023-10-06T16:04:13.570Z,2.58
2023-10-06T16:06:42.982Z,3.30
2023-10-06T16:09:10.805Z,3.60
2023-10-06T16:11:40.832Z,2.85
2023-10-06T16:14:07.562Z,3.75
2023-10-06T16:16:35.993Z,4.93
2023-10-06T16:19:07.030Z,3.70
2023-10-06T16:21:34.456Z,4.80
2023-10-06T16:24:01.636Z,3.83
2023-10-06T16:26:31.299Z,3.13
2023-10-06T16:28:59.658Z,3.45
2023-10-06T16:31:27.317Z,4.65
2023-10-06T16:33:55.290Z,3.72
2023-10-06T16:36:23.749Z,3.45
2023-10-06T16:38:54.224Z,4.80
2023-10-06T16:41:24.239Z,4.03
2023-10-06T16:43:57.423Z,4.38
2023-10-06T16:46:24.752Z,3.45
2023-10-06T16:48:51.551Z,4.05
2023-10-06T16:51:21.586Z,2.72
2023-10-06T16:53:49.973Z,3.58
2023-10-06T16:56:19.594Z,4.05
2023-10-06T16:58:47.161Z,3.15
2023-10-06T17:01:13.849Z,4.10
2023-10-06T17:03:41.072Z,4.05
2023-10-06T17:06:12.417Z,3.72
2023-10-06T17:08:39.809Z,4.40
2023-10-06T17:11:25.194Z,4.63
2023-10-06T17:13:54.169Z,5.32
2023-10-06T17:16:21.208Z,3.97
2023-10-06T17:18:48.340Z,4.60
2023-10-06T17:21:15.825Z,6.18
2023-10-06T17:23:46.081Z,5.05
2023-10-06T17:26:16.043Z,7.03
2023-10-06T17:28:42.885Z,6.70
2023-10-06T17:31:16.049Z,4.15
2023-10-06T17:33:43.749Z,3.72
2023-10-06T17:36:10.462Z,3.75
2023-10-06T17:38:37.175Z,5.25
2023-10-06T17:41:04.845Z,4.28
2023-10-06T17:45:58.983Z,3.65
2023-10-06T17:50:53.678Z,4.50
2023-10-06T17:53:20.310Z,5.38
2023-10-06T17:55:57.529Z,5.35
2023-10-06T17:58:24.572Z,3.70
2023-10-06T18:00:51.361Z,5.15
2023-10-06T18:03:20.647Z,5.57
2023-10-06T18:05:49.593Z,5.28
2023-10-06T18:08:17.881Z,6.43
2023-10-06T18:10:46.179Z,6.18
2023-10-06T18:13:13.018Z,4.20
2023-10-06T18:15:39.631Z,4.72
2023-10-06T18:18:06.527Z,6.03
2023-10-06T18:20:38.950Z,3.70
2023-10-06T18:23:08.892Z,6.03
2023-10-06T18:25:37.596Z,5.60
2023-10-06T18:28:05.440Z,6.13
2023-10-06T18:30:32.614Z,6.95
2023-10-06T18:32:59.515Z,5.45
2023-10-06T18:35:26.148Z,5.60
2023-10-06T18:37:54.407Z,5.15
2023-10-06T18:40:21.212Z,5.85
2023-10-06T18:42:48.558Z,5.55
2023-10-06T18:45:15.260Z,5.68
2023-10-06T18:47:42.083Z,6.05
2023-10-06T18:50:18.949Z,7.70
2023-10-06T18:52:52.882Z,6.18
2023-10-06T18:55:23.653Z,5.38
2023-10-06T18:57:51.904Z,5.25
2023-10-06T19:00:18.704Z,6.07
2023-10-06T19:02:48.342Z,6.68
2023-10-06T19:05:15.903Z,5.88
2023-10-06T19:07:43.487Z,6.30
2023-10-06T19:10:10.845Z,5.45
2023-10-06T19:12:37.983Z,7.28
2023-10-06T19:15:09.301Z,7.45
2023-10-06T19:17:38.130Z,5.75
2023-10-06T19:20:08.504Z,6.35
2023-10-06T19:22:35.890Z,4.93
2023-10-06T19:25:03.019Z,6.50
2023-10-06T19:27:30.073Z,9.18
2023-10-06T19:29:56.644Z,7.22
2023-10-06T19:32:24.906Z,9.20
2023-10-06T19:34:52.685Z,6.53
2023-10-06T19:37:20.840Z,8.00
2023-10-06T19:39:47.715Z,7.50
2023-10-06T19:42:14.476Z,7.68
2023-10-06T19:44:44.500Z,6.90
2023-10-06T19:47:13.099Z,7.90
2023-10-06T19:49:40.238Z,7.15
2023-10-06T19:52:09.206Z,7.13
2023-10-06T19:54:36.851Z,6.13
2023-10-06T19:57:03.918Z,7.70
2023-10-06T19:59:33.625Z,5.22
2023-10-06T20:02:01.991Z,6.53
2023-10-06T20:04:28.695Z,6.70
2023-10-06T20:06:55.576Z,6.90
2023-10-06T20:09:25.170Z,6.90
2023-10-06T20:11:52.133Z,6.18
2023-10-06T20:14:18.953Z,6.55
2023-10-06T20:16:45.624Z,6.38
2023-10-06T20:19:12.678Z,5.40
2023-10-06T20:21:40.614Z,4.55
2023-10-06T20:24:09.839Z,6.00
2023-10-06T20:26:36.753Z,8.10
2023-10-06T20:29:10.478Z,7.22
2023-10-06T20:31:41.184Z,6.05
2023-10-06T20:34:08.532Z,7.68
2023-10-06T20:36:35.648Z,6.40
2023-10-06T20:39:09.623Z,6.57
2023-10-06T20:41:40.286Z,5.13
2023-10-06T20:44:13.727Z,5.88
2023-10-06T20:49:11.715Z,6.10
2023-10-06T20:51:38.360Z,5.20
2023-10-06T20:54:05.204Z,5.85
2023-10-06T20:56:31.905Z,5.38
2023-10-06T20:58:58.985Z,6.22
2023-10-06T21:01:26.045Z,5.57
2023-10-06T21:03:53.108Z,5.65
2023-10-06T21:06:19.835Z,7.32
2023-10-06T21:08:47.818Z,6.57
2023-10-06T21:11:14.422Z,6.28
2023-10-06T21:13:41.036Z,5.15
2023-10-06T21:16:07.769Z,5.70
2023-10-06T21:18:34.391Z,5.30
2023-10-06T21:21:00.993Z,4.43
2023-10-06T21:23:28.690Z,5.93
2023-10-06T21:28:23.905Z,5.07
2023-10-06T21:30:50.670Z,6.10
2023-10-06T21:33:17.297Z,5.40
2023-10-06T21:35:43.834Z,4.53
2023-10-06T21:38:10.396Z,4.13
2023-10-06T21:40:39.091Z,5.72
2023-10-06T21:43:05.921Z,6.63
2023-10-06T21:45:32.481Z,4.60
2023-10-06T21:47:59.091Z,4.47
2023-10-06T21:50:25.791Z,4.40
2023-10-06T21:52:53.130Z,5.43
2023-10-06T21:55:19.730Z,5.75
2023-10-06T21:57:46.345Z,4.45
2023-10-06T22:00:26.389Z,6.10
2023-10-06T22:02:54.894Z,5.60
2023-10-06T22:05:21.959Z,5.45
2023-10-06T22:07:52.434Z,5.15
2023-10-06T22:10:19.326Z,5.35
2023-10-06T22:12:48.672Z,6.05
2023-10-06T22:15:15.724Z,4.50
2023-10-06T22:17:42.457Z,5.00
2023-10-06T22:20:09.935Z,5.75
2023-10-06T22:22:37.875Z,5.57
2023-10-06T22:25:06.075Z,6.78
2023-10-06T22:27:34.002Z,4.72
2023-10-06T22:30:00.924Z,4.32
2023-10-06T22:32:27.671Z,5.93
2023-10-06T22:34:54.847Z,4.55
2023-10-06T22:37:26.264Z,5.43
2023-10-06T22:39:52.949Z,3.80
2023-10-06T22:42:19.539Z,4.03
2023-10-06T22:44:46.406Z,6.28
2023-10-06T22:47:13.061Z,6.53
2023-10-06T22:49:40.983Z,6.38
2023-10-06T22:52:07.540Z,5.10
2023-10-06T22:54:34.181Z,4.63
2023-10-06T22:57:00.911Z,4.88
2023-10-06T22:59:27.444Z,5.47
2023-10-06T23:01:55.028Z,6.68
2023-10-06T23:04:22.274Z,5.35
2023-10-06T23:06:49.239Z,4.13
2023-10-06T23:09:18.416Z,5.93
2023-10-06T23:11:45.655Z,6.38
2023-10-06T23:14:12.444Z,5.05
2023-10-06T23:16:40.774Z,5.88
2023-10-06T23:19:13.796Z,4.97
2023-10-06T23:21:44.103Z,5.90
2023-10-06T23:24:16.218Z,5.43
2023-10-06T23:26:46.062Z,5.55
2023-10-06T23:29:13.709Z,3.75
2023-10-06T23:34:08.359Z,5.18
2023-10-06T23:36:35.317Z,5.28
2023-10-06T23:39:02.172Z,5.93
2023-10-06T23:41:30.646Z,4.88
2023-10-06T23:43:57.506Z,6.75
2023-10-06T23:46:26.477Z,5.93
2023-10-06T23:48:54.299Z,5.15
2023-10-06T23:51:22.146Z,4.55
2023-10-06T23:53:52.773Z,6.38
2023-10-06T23:56:26.339Z,5.60
2023-10-06T23:58:56.661Z,4.35
